createdAt,value
2022-12-01T00:00:21.216Z,6.27
2022-12-01T00:02:47.657Z,6.31
2022-12-01T00:05:14.071Z,6.26
2022-12-01T00:07:41.794Z,6.21
2022-12-01T00:10:09.598Z,6.13
2022-12-01T00:12:35.886Z,6.24
2022-12-01T00:15:02.152Z,6.27
2022-12-01T00:17:28.970Z,6.31
2022-12-01T00:19:55.565Z,6.18
2022-12-01T00:22:21.879Z,6.14
2022-12-01T00:24:49.516Z,6.19
2022-12-01T00:27:15.892Z,6.13
2022-12-01T00:29:42.187Z,6.07
2022-12-01T00:32:08.590Z,6.00
2022-12-01T00:34:34.950Z,6.06
2022-12-01T00:37:01.257Z,6.08
2022-12-01T00:39:27.591Z,5.99
2022-12-01T00:41:55.232Z,6.00
2022-12-01T00:44:21.503Z,6.07
2022-12-01T00:46:47.843Z,6.08
2022-12-01T00:49:14.182Z,6.11
2022-12-01T00:51:40.503Z,6.06
2022-12-01T00:54:06.795Z,6.05
2022-12-01T00:56:33.156Z,6.03
2022-12-01T00:59:00.777Z,6.07
2022-12-01T01:01:27.203Z,6.04
2022-12-01T01:03:53.607Z,6.01
2022-12-01T01:06:19.894Z,5.97
2022-12-01T01:08:46.202Z,5.93
2022-12-01T01:11:12.501Z,5.90
2022-12-01T01:13:38.885Z,5.94
2022-12-01T01:16:07.973Z,5.96
2022-12-01T01:18:34.608Z,6.00
2022-12-01T01:21:02.663Z,5.97
2022-12-01T01:23:29.013Z,5.96
2022-12-01T01:26:00.325Z,5.93
2022-12-01T01:28:26.622Z,5.95
2022-12-01T01:30:53.109Z,5.91
2022-12-01T01:33:20.792Z,5.95
2022-12-01T01:35:47.107Z,5.96
2022-12-01T01:38:13.455Z,5.99
2022-12-01T01:40:42.387Z,6.01
2022-12-01T01:43:13.994Z,6.03
2022-12-01T01:45:40.292Z,5.96
2022-12-01T01:48:07.202Z,5.95
2022-12-01T01:50:34.866Z,6.02
2022-12-01T01:53:02.539Z,5.93
2022-12-01T01:55:29.930Z,5.91
2022-12-01T01:57:56.605Z,6.00
2022-12-01T02:00:22.923Z,6.01
2022-12-01T02:02:50.289Z,5.99
2022-12-01T02:05:19.076Z,5.94
2022-12-01T02:07:47.325Z,5.98
2022-12-01T02:10:14.560Z,6.01
2022-12-01T02:12:49.131Z,5.97
2022-12-01T02:15:20.553Z,5.96
2022-12-01T02:17:50.606Z,6.05
2022-12-01T02:20:42.154Z,5.97
2022-12-01T02:23:31.674Z,5.92
2022-12-01T02:26:06.688Z,5.95
2022-12-01T02:28:42.127Z,5.95
2022-12-01T02:31:13.733Z,5.99
2022-12-01T02:33:43.495Z,5.94
2022-12-01T02:36:15.315Z,5.92
2022-12-01T02:38:47.319Z,5.94
2022-12-01T02:41:17.817Z,5.92
2022-12-01T02:43:46.460Z,5.84
2022-12-01T02:46:16.306Z,5.89
2022-12-01T02:48:44.423Z,5.87
2022-12-01T02:51:13.579Z,5.88
2022-12-01T02:53:39.893Z,5.93
2022-12-01T02:56:07.113Z,5.88
2022-12-01T02:58:33.426Z,5.90
2022-12-01T03:01:03.487Z,5.92
2022-12-01T03:03:37.157Z,5.98
2022-12-01T03:06:07.864Z,5.92
2022-12-01T03:08:40.315Z,5.89
2022-12-01T03:11:06.598Z,5.87
2022-12-01T03:13:38.233Z,5.88
2022-12-01T03:16:07.519Z,5.86
2022-12-01T03:18:38.292Z,5.88
2022-12-01T03:21:08.339Z,5.88
2022-12-01T03:23:37.441Z,5.94
2022-12-01T03:26:05.704Z,5.93
2022-12-01T03:28:34.858Z,5.89
2022-12-01T03:31:05.175Z,5.91
2022-12-01T03:33:33.896Z,5.97
2022-12-01T03:36:03.216Z,5.94
2022-12-01T03:38:29.897Z,5.91
2022-12-01T03:40:58.512Z,5.88
2022-12-01T03:43:27.009Z,5.89
2022-12-01T03:45:56.271Z,5.91
2022-12-01T03:48:23.441Z,5.92
2022-12-01T03:51:02.638Z,5.89
2022-12-01T03:53:34.314Z,5.90
2022-12-01T03:56:02.415Z,5.96
2022-12-01T03:58:30.519Z,5.94
2022-12-01T04:00:56.845Z,5.92
2022-12-01T04:03:24.854Z,5.89
2022-12-01T04:05:51.322Z,5.86
2022-12-01T04:08:17.940Z,5.85
2022-12-01T04:10:45.565Z,5.88
2022-12-01T04:13:11.902Z,5.86
2022-12-01T04:15:38.296Z,5.91
2022-12-01T04:18:04.878Z,5.83
2022-12-01T04:20:31.138Z,5.93
2022-12-01T04:22:57.430Z,5.97
2022-12-01T04:25:23.742Z,5.90
2022-12-01T04:27:51.386Z,5.93
2022-12-01T04:30:17.691Z,5.88
2022-12-01T04:32:44.258Z,5.83
2022-12-01T04:35:11.865Z,5.83
2022-12-01T04:37:38.269Z,5.86
2022-12-01T04:40:05.344Z,5.83
2022-12-01T04:42:31.894Z,5.82
2022-12-01T04:44:59.571Z,5.82
2022-12-01T04:47:25.896Z,5.89
2022-12-01T04:49:52.286Z,5.83
2022-12-01T04:52:18.752Z,5.81
2022-12-01T04:54:45.067Z,5.81
2022-12-01T04:57:11.361Z,5.86
2022-12-01T04:59:37.633Z,5.90
2022-12-01T05:02:05.315Z,5.93
2022-12-01T05:04:31.746Z,5.93
2022-12-01T05:06:58.112Z,5.98
2022-12-01T05:09:24.428Z,5.98
2022-12-01T05:11:50.737Z,5.94
2022-12-01T05:14:17.011Z,5.97
2022-12-01T05:16:43.389Z,5.93
2022-12-01T05:19:11.042Z,5.88
2022-12-01T05:21:37.318Z,5.82
2022-12-01T05:24:03.879Z,5.84
2022-12-01T05:26:30.195Z,5.86
2022-12-01T05:28:56.487Z,5.86
2022-12-01T05:31:22.849Z,5.86
2022-12-01T05:33:49.182Z,5.86
2022-12-01T05:36:16.810Z,5.86
2022-12-01T05:38:43.081Z,5.83
2022-12-01T05:41:10.084Z,5.87
2022-12-01T05:43:36.507Z,5.88
2022-12-01T05:46:03.235Z,5.94
2022-12-01T05:48:29.564Z,5.94
2022-12-01T05:50:55.830Z,5.89
2022-12-01T05:53:23.450Z,5.84
2022-12-01T05:55:51.687Z,5.81
2022-12-01T05:58:17.955Z,5.92
2022-12-01T06:00:46.224Z,5.93
2022-12-01T06:03:12.752Z,5.92
2022-12-01T06:05:39.292Z,5.90
2022-12-01T06:08:05.797Z,5.88
2022-12-01T06:10:33.515Z,5.82
2022-12-01T06:12:59.834Z,5.93
2022-12-01T06:15:26.605Z,5.81
2022-12-01T06:17:52.892Z,5.84
2022-12-01T06:20:19.305Z,5.82
2022-12-01T06:22:45.637Z,5.82
2022-12-01T06:25:11.906Z,5.78
2022-12-01T06:27:39.551Z,5.82
2022-12-01T06:30:06.596Z,5.72
2022-12-01T06:32:33.127Z,5.69
2022-12-01T06:34:59.437Z,5.64
2022-12-01T06:37:26.563Z,5.69
2022-12-01T06:39:53.134Z,5.63
2022-12-01T06:42:19.474Z,5.66
2022-12-01T06:44:47.123Z,5.60
2022-12-01T06:47:13.404Z,5.62
2022-12-01T06:49:40.003Z,5.57
2022-12-01T06:52:06.282Z,5.58
2022-12-01T06:54:32.583Z,5.56
2022-12-01T06:56:58.858Z,5.53
2022-12-01T06:59:25.793Z,5.56
2022-12-01T07:01:53.542Z,5.59
2022-12-01T07:04:20.025Z,5.63
2022-12-01T07:06:46.326Z,5.63
2022-12-01T07:09:12.615Z,5.63
2022-12-01T07:11:38.888Z,5.58
2022-12-01T07:14:05.259Z,5.65
2022-12-01T07:16:31.637Z,5.68
2022-12-01T07:18:59.280Z,5.66
2022-12-01T07:21:25.562Z,5.67
2022-12-01T07:23:51.838Z,5.71
2022-12-01T07:26:18.552Z,5.68
2022-12-01T07:28:44.838Z,5.74
2022-12-01T07:31:11.866Z,5.74
2022-12-01T07:33:38.255Z,5.68
2022-12-01T07:36:06.834Z,5.77
2022-12-01T07:38:34.045Z,5.75
2022-12-01T07:41:04.386Z,5.73
2022-12-01T07:43:30.778Z,5.74
2022-12-01T07:45:57.109Z,5.76
2022-12-01T07:48:23.430Z,5.81
2022-12-01T07:50:49.740Z,5.82
2022-12-01T07:53:17.376Z,5.78
2022-12-01T07:55:47.630Z,5.84
2022-12-01T07:58:13.932Z,5.77
2022-12-01T08:00:40.215Z,5.77
2022-12-01T08:03:06.599Z,5.74
2022-12-01T08:05:32.938Z,5.82
2022-12-01T08:07:59.280Z,5.77
2022-12-01T08:10:26.952Z,5.78
2022-12-01T08:12:53.265Z,5.80
2022-12-01T08:15:19.559Z,5.86
2022-12-01T08:17:45.825Z,5.91
2022-12-01T08:20:12.395Z,5.92
2022-12-01T08:22:38.711Z,5.86
2022-12-01T08:25:05.426Z,5.93
2022-12-01T08:27:33.336Z,5.95
2022-12-01T08:29:59.633Z,5.94
2022-12-01T08:32:25.916Z,5.90
2022-12-01T08:34:53.654Z,5.95
2022-12-01T08:37:20.311Z,5.94
2022-12-01T08:39:46.616Z,5.93
2022-12-01T08:42:13.029Z,5.95
2022-12-01T08:44:40.811Z,5.96
2022-12-01T08:47:07.221Z,5.92
2022-12-01T08:49:33.512Z,5.94
2022-12-01T08:51:59.779Z,5.96
2022-12-01T08:54:26.091Z,6.00
2022-12-01T08:56:52.393Z,6.03
2022-12-01T08:59:18.666Z,6.00
2022-12-01T09:01:46.365Z,6.03
2022-12-01T09:04:12.662Z,6.06
2022-12-01T09:06:40.221Z,6.01
2022-12-01T09:09:06.673Z,6.00
2022-12-01T09:11:32.979Z,5.97
2022-12-01T09:13:59.547Z,5.99
2022-12-01T09:16:26.038Z,5.98
2022-12-01T09:18:54.514Z,5.97
2022-12-01T09:21:21.913Z,5.99
2022-12-01T09:23:48.490Z,6.02
2022-12-01T09:26:14.896Z,6.04
2022-12-01T09:28:41.165Z,6.09
2022-12-01T09:31:08.437Z,6.10
2022-12-01T09:33:34.927Z,6.10
2022-12-01T09:36:03.315Z,6.13
2022-12-01T09:38:30.346Z,6.17
2022-12-01T09:40:58.114Z,6.23
2022-12-01T09:43:27.407Z,6.14
2022-12-01T09:45:56.322Z,6.17
2022-12-01T09:48:26.459Z,6.19
2022-12-01T09:50:53.255Z,6.17
2022-12-01T09:53:22.274Z,6.11
2022-12-01T09:55:49.015Z,6.15
2022-12-01T09:58:17.957Z,6.11
2022-12-01T10:00:45.653Z,6.14
2022-12-01T10:03:20.199Z,6.19
2022-12-01T10:06:18.424Z,6.17
2022-12-01T10:08:39.350Z,6.24
2022-12-01T10:11:08.231Z,6.27
2022-12-01T10:13:34.525Z,6.29
2022-12-01T10:16:05.299Z,6.23
2022-12-01T10:18:35.155Z,6.24
2022-12-01T10:21:04.966Z,6.20
2022-12-01T10:23:37.303Z,6.13
2022-12-01T10:26:09.804Z,6.10
2022-12-01T10:28:56.721Z,6.10
2022-12-01T10:31:26.308Z,6.09
2022-12-01T10:34:00.782Z,6.16
2022-12-01T10:36:28.230Z,6.18
2022-12-01T10:38:54.783Z,6.28
2022-12-01T10:41:24.551Z,6.36
2022-12-01T10:43:51.863Z,6.39
2022-12-01T10:46:21.348Z,6.43
2022-12-01T10:48:55.018Z,6.43
2022-12-01T10:51:21.764Z,6.46
2022-12-01T10:53:48.578Z,6.52
2022-12-01T10:56:16.588Z,6.47
2022-12-01T10:58:46.169Z,6.45
2022-12-01T11:01:16.316Z,6.51
2022-12-01T11:03:43.889Z,6.51
2022-12-01T11:06:10.744Z,6.50
2022-12-01T11:08:40.614Z,6.42
2022-12-01T11:11:23.001Z,6.53
2022-12-01T11:13:50.920Z,6.53
2022-12-01T11:16:33.329Z,6.52
2022-12-01T11:19:07.331Z,6.52
2022-12-01T11:21:33.646Z,6.54
2022-12-01T11:23:59.936Z,6.54
2022-12-01T11:26:28.025Z,6.49
2022-12-01T11:28:57.271Z,6.60
2022-12-01T11:31:27.237Z,6.54
2022-12-01T11:33:54.380Z,6.56
2022-12-01T11:36:22.640Z,6.57
2022-12-01T11:38:49.210Z,6.54
2022-12-01T11:41:24.933Z,6.56
2022-12-01T11:44:01.153Z,6.65
2022-12-01T11:46:50.213Z,6.68
2022-12-01T11:49:23.109Z,6.65
2022-12-01T11:51:49.499Z,6.80
2022-12-01T11:54:17.427Z,6.67
2022-12-01T11:56:44.789Z,6.68
2022-12-01T11:59:12.722Z,6.72
2022-12-01T12:01:46.261Z,6.73
2022-12-01T12:04:20.746Z,6.81
2022-12-01T12:06:50.476Z,6.81
2022-12-01T12:09:44.746Z,6.78
2022-12-01T12:12:16.503Z,6.85
2022-12-01T12:14:52.671Z,6.80
2022-12-01T12:17:24.580Z,6.76
2022-12-01T12:20:08.429Z,6.80
2022-12-01T12:22:39.856Z,6.70
2022-12-01T12:25:13.007Z,6.74
2022-12-01T12:27:43.194Z,6.70
2022-12-01T12:30:18.566Z,6.79
2022-12-01T12:33:12.915Z,6.74
2022-12-01T12:35:43.389Z,6.69
2022-12-01T12:38:24.977Z,6.71
2022-12-01T12:40:54.783Z,6.78
2022-12-01T12:43:22.616Z,6.70
2022-12-01T12:45:57.086Z,6.64
2022-12-01T12:48:28.769Z,6.62
2022-12-01T12:51:01.678Z,6.61
2022-12-01T12:53:31.776Z,6.62
2022-12-01T12:55:59.757Z,6.65
2022-12-01T12:58:27.288Z,6.60
2022-12-01T13:00:56.229Z,6.62
2022-12-01T13:03:32.241Z,6.60
2022-12-01T13:06:03.355Z,6.57
2022-12-01T13:08:33.988Z,6.57
2022-12-01T13:11:03.619Z,6.62
2022-12-01T13:13:33.543Z,6.61
2022-12-01T13:16:02.176Z,6.64
2022-12-01T13:18:33.677Z,6.62
2022-12-01T13:21:02.005Z,6.60
2022-12-01T13:23:28.756Z,6.62
2022-12-01T13:25:56.559Z,6.58
2022-12-01T13:28:25.178Z,6.57
2022-12-01T13:31:02.129Z,6.64
2022-12-01T13:33:29.033Z,6.62
2022-12-01T13:36:22.635Z,6.61
2022-12-01T13:38:51.409Z,6.63
2022-12-01T13:41:25.893Z,6.65
2022-12-01T13:43:54.372Z,6.69
2022-12-01T13:46:21.495Z,6.62
2022-12-01T13:48:51.556Z,6.62
2022-12-01T13:51:17.894Z,6.61
2022-12-01T13:53:55.506Z,6.65
2022-12-01T13:56:25.095Z,6.66
2022-12-01T13:58:52.267Z,6.66
2022-12-01T14:01:37.468Z,6.61
2022-12-01T14:04:21.779Z,6.64
2022-12-01T14:06:49.400Z,6.62
2022-12-01T14:09:20.203Z,6.60
2022-12-01T14:11:55.967Z,6.61
2022-12-01T14:14:26.259Z,6.56
2022-12-01T14:16:53.643Z,6.53
2022-12-01T14:19:27.064Z,6.52
2022-12-01T14:21:53.475Z,6.52
2022-12-01T14:24:25.601Z,6.54
2022-12-01T14:26:52.396Z,6.48
2022-12-01T14:29:25.256Z,6.49
2022-12-01T14:32:18.806Z,6.47
2022-12-01T14:34:46.039Z,6.43
2022-12-01T14:37:14.381Z,6.43
2022-12-01T14:39:44.202Z,6.44
2022-12-01T14:42:15.350Z,6.45
2022-12-01T14:44:43.646Z,6.38
2022-12-01T14:47:13.039Z,6.39
2022-12-01T14:49:40.657Z,6.42
2022-12-01T14:52:12.083Z,6.37
2022-12-01T14:54:44.754Z,6.36
2022-12-01T14:57:16.498Z,6.32
2022-12-01T14:59:43.302Z,6.35
2022-12-01T15:02:10.461Z,6.32
2022-12-01T15:04:51.799Z,6.28
2022-12-01T15:07:20.379Z,6.29
2022-12-01T15:09:59.367Z,6.31
2022-12-01T15:12:26.792Z,6.25
2022-12-01T15:14:53.288Z,6.25
2022-12-01T15:17:27.772Z,6.27
2022-12-01T15:19:54.089Z,6.22
2022-12-01T15:22:20.437Z,6.23
2022-12-01T15:24:46.854Z,6.23
2022-12-01T15:27:23.956Z,6.21
2022-12-01T15:29:50.382Z,6.27
2022-12-01T15:32:17.555Z,6.21
2022-12-01T15:34:44.430Z,6.26
2022-12-01T15:37:13.480Z,6.20
2022-12-01T15:39:44.838Z,6.20
2022-12-01T15:42:19.107Z,6.16
2022-12-01T15:45:00.143Z,6.24
2022-12-01T15:47:31.093Z,6.28
2022-12-01T15:49:57.403Z,6.28
2022-12-01T15:52:23.729Z,6.30
2022-12-01T15:54:50.472Z,6.30
2022-12-01T15:57:18.246Z,6.27
2022-12-01T15:59:45.500Z,6.27
2022-12-01T16:02:25.614Z,6.22
2022-12-01T16:05:00.162Z,6.30
2022-12-01T16:07:50.245Z,6.25
2022-12-01T16:10:27.749Z,6.16
2022-12-01T16:13:14.086Z,6.20
2022-12-01T16:15:42.536Z,6.16
2022-12-01T16:18:24.203Z,6.11
2022-12-01T16:20:50.511Z,6.11
2022-12-01T16:23:19.990Z,6.08
2022-12-01T16:25:47.088Z,6.09
2022-12-01T16:28:20.225Z,6.08
2022-12-01T16:30:46.697Z,6.15
2022-12-01T16:33:15.022Z,6.15
2022-12-01T16:35:42.707Z,6.11
2022-12-01T16:38:11.967Z,6.07
2022-12-01T16:40:39.934Z,6.08
2022-12-01T16:43:11.511Z,6.11
2022-12-01T16:45:37.800Z,6.05
2022-12-01T16:48:09.121Z,6.05
2022-12-01T16:50:36.209Z,6.07
2022-12-01T16:53:03.992Z,6.07
2022-12-01T16:55:34.914Z,6.03
2022-12-01T16:58:01.228Z,6.03
2022-12-01T17:00:27.527Z,6.03
2022-12-01T17:02:53.849Z,5.99
2022-12-01T17:05:20.169Z,6.00
2022-12-01T17:07:46.558Z,6.00
2022-12-01T17:10:14.789Z,6.06
2022-12-01T17:12:41.125Z,6.05
2022-12-01T17:15:07.926Z,6.09
2022-12-01T17:17:34.219Z,6.03
2022-12-01T17:20:00.564Z,5.98
2022-12-01T17:22:26.846Z,5.99
2022-12-01T17:24:53.239Z,6.00
2022-12-01T17:27:20.999Z,6.01
2022-12-01T17:29:47.322Z,5.96
2022-12-01T17:32:13.865Z,5.96
2022-12-01T17:34:40.386Z,5.95
2022-12-01T17:37:06.722Z,5.93
2022-12-01T17:39:33.033Z,5.92
2022-12-01T17:41:59.327Z,5.92
2022-12-01T17:44:27.009Z,5.86
2022-12-01T17:46:53.373Z,5.96
2022-12-01T17:49:19.805Z,5.94
2022-12-01T17:51:46.146Z,5.86
2022-12-01T17:54:12.506Z,5.86
2022-12-01T17:56:38.816Z,5.83
2022-12-01T17:59:05.134Z,5.85
2022-12-01T18:01:32.872Z,5.80
2022-12-01T18:03:59.236Z,5.77
2022-12-01T18:06:25.651Z,5.79
2022-12-01T18:08:52.030Z,5.77
2022-12-01T18:11:18.651Z,5.77
2022-12-01T18:13:46.263Z,5.77
2022-12-01T18:16:13.816Z,5.78
2022-12-01T18:18:41.576Z,5.79
2022-12-01T18:21:08.268Z,5.79
2022-12-01T18:23:34.767Z,5.81
2022-12-01T18:26:02.407Z,5.80
2022-12-01T18:28:28.711Z,5.79
2022-12-01T18:30:55.050Z,5.82
2022-12-01T18:33:21.454Z,5.78
2022-12-01T18:35:49.071Z,5.77
2022-12-01T18:38:15.413Z,5.74
2022-12-01T18:40:41.731Z,5.77
2022-12-01T18:43:07.996Z,5.73
2022-12-01T18:45:34.320Z,5.72
2022-12-01T18:48:00.593Z,5.75
2022-12-01T18:50:26.914Z,5.76
2022-12-01T18:52:54.550Z,5.73
2022-12-01T18:55:20.859Z,5.73
2022-12-01T18:57:47.170Z,5.73
2022-12-01T19:00:14.135Z,5.71
2022-12-01T19:02:40.529Z,5.75
2022-12-01T19:05:07.010Z,5.73
2022-12-01T19:07:33.407Z,5.75
2022-12-01T19:10:01.272Z,5.74
2022-12-01T19:12:27.540Z,5.75
2022-12-01T19:14:53.863Z,5.78
2022-12-01T19:17:20.140Z,5.78
2022-12-01T19:19:46.583Z,5.81
2022-12-01T19:22:12.905Z,5.78
2022-12-01T19:24:39.233Z,5.78
2022-12-01T19:27:06.929Z,5.81
2022-12-01T19:29:34.674Z,5.82
2022-12-01T19:32:01.194Z,5.78
2022-12-01T19:34:27.503Z,5.80
2022-12-01T19:36:53.962Z,5.81
2022-12-01T19:39:20.251Z,5.79
2022-12-01T19:41:46.572Z,5.79
2022-12-01T19:44:14.245Z,5.78
2022-12-01T19:46:40.582Z,5.80
2022-12-01T19:49:06.907Z,5.83
2022-12-01T19:51:34.822Z,5.82
2022-12-01T19:54:01.635Z,5.80
2022-12-01T19:56:28.207Z,5.80
2022-12-01T19:58:55.641Z,5.83
2022-12-01T20:01:23.630Z,5.82
2022-12-01T20:03:51.092Z,5.75
2022-12-01T20:06:18.403Z,5.78
2022-12-01T20:08:44.766Z,5.78
2022-12-01T20:11:11.429Z,5.77
2022-12-01T20:13:38.861Z,5.79
2022-12-01T20:16:06.528Z,5.75
2022-12-01T20:18:34.619Z,5.76
2022-12-01T20:21:04.783Z,5.78
2022-12-01T20:23:31.059Z,5.74
2022-12-01T20:25:58.415Z,5.71
2022-12-01T20:28:24.728Z,5.70
2022-12-01T20:30:51.011Z,5.66
2022-12-01T20:33:17.334Z,5.67
2022-12-01T20:35:45.029Z,5.68
2022-12-01T20:38:11.336Z,5.65
2022-12-01T20:40:37.659Z,5.68
2022-12-01T20:43:03.931Z,5.67
2022-12-01T20:45:30.267Z,5.63
2022-12-01T20:47:56.612Z,5.64
2022-12-01T20:50:22.954Z,5.67
2022-12-01T20:52:50.636Z,5.62
2022-12-01T20:55:17.042Z,5.69
2022-12-01T20:57:43.323Z,5.62
2022-12-01T21:00:10.159Z,5.61
2022-12-01T21:02:36.690Z,5.57
2022-12-01T21:05:03.197Z,5.60
2022-12-01T21:07:30.116Z,5.57
2022-12-01T21:09:57.812Z,5.66
2022-12-01T21:12:24.141Z,5.59
2022-12-01T21:14:56.375Z,5.63
2022-12-01T21:17:28.402Z,5.59
2022-12-01T21:19:56.073Z,5.59
2022-12-01T21:22:22.392Z,5.53
2022-12-01T21:24:50.196Z,5.58
2022-12-01T21:27:18.114Z,5.61
2022-12-01T21:29:45.367Z,5.54
2022-12-01T21:32:13.348Z,5.55
2022-12-01T21:34:39.633Z,5.56
2022-12-01T21:37:10.406Z,5.53
2022-12-01T21:39:38.215Z,5.54
2022-12-01T21:42:12.258Z,5.55
2022-12-01T21:44:39.905Z,5.54
2022-12-01T21:47:17.531Z,5.53
2022-12-01T21:49:43.830Z,5.52
2022-12-01T21:52:13.547Z,5.49
2022-12-01T21:54:39.828Z,5.49
2022-12-01T21:57:13.662Z,5.51
2022-12-01T21:59:41.295Z,5.43
2022-12-01T22:02:24.737Z,5.39
2022-12-01T22:04:51.265Z,5.39
2022-12-01T22:07:17.805Z,5.40
2022-12-01T22:09:44.124Z,5.39
2022-12-01T22:12:16.304Z,5.40
2022-12-01T22:14:43.948Z,5.41
2022-12-01T22:17:14.545Z,5.40
2022-12-01T22:19:44.103Z,5.37
2022-12-01T22:22:21.927Z,5.38
2022-12-01T22:24:49.580Z,5.41
2022-12-01T22:27:23.541Z,5.42
2022-12-01T22:29:52.358Z,5.43
2022-12-01T22:32:37.183Z,5.40
2022-12-01T22:35:14.215Z,5.41
2022-12-01T22:37:43.123Z,5.42
2022-12-01T22:40:24.278Z,5.43
2022-12-01T22:42:50.549Z,5.42
2022-12-01T22:45:21.991Z,5.40
2022-12-01T22:47:48.305Z,5.42
2022-12-01T22:50:22.772Z,5.41
2022-12-01T22:52:50.115Z,5.39
2022-12-01T22:55:19.249Z,5.38
2022-12-01T22:57:45.550Z,5.40
2022-12-01T23:00:15.878Z,5.36
2022-12-01T23:02:43.830Z,5.31
2022-12-01T23:05:16.407Z,5.30
2022-12-01T23:07:43.067Z,5.32
2022-12-01T23:10:12.414Z,5.31
2022-12-01T23:12:38.754Z,5.31
2022-12-01T23:15:16.406Z,5.28
2022-12-01T23:17:44.017Z,5.29
2022-12-01T23:20:23.714Z,5.26
2022-12-01T23:22:52.300Z,5.26
2022-12-01T23:25:19.274Z,5.27
2022-12-01T23:27:46.595Z,5.28
2022-12-01T23:30:13.606Z,5.27
2022-12-01T23:32:39.922Z,5.26
2022-12-01T23:35:12.948Z,5.24
2022-12-01T23:37:40.935Z,5.25
2022-12-01T23:40:14.723Z,5.26
2022-12-01T23:42:41.438Z,5.19
2022-12-01T23:45:14.188Z,5.20
2022-12-01T23:47:40.675Z,5.17
2022-12-01T23:50:13.921Z,5.17
2022-12-01T23:52:40.237Z,5.17
2022-12-01T23:55:11.420Z,5.13
2022-12-01T23:57:37.739Z,5.16
